sensor_id;sensor_type;location;lat;lon;timestamp;pressure;altitude;pressure_sealevel;temperature;humidity
56082;BME280;41957;52.060;5.138;2022-10-16T00:01:12;100994.09;;;17.62;69.74
56082;BME280;41957;52.060;5.138;2022-10-16T00:03:39;100991.44;;;17.62;69.26
56082;BME280;41957;52.060;5.138;2022-10-16T00:06:05;100996.91;;;17.59;69.62
56082;BME280;41957;52.060;5.138;2022-10-16T00:08:31;100997.75;;;17.60;69.91
56082;BME280;41957;52.060;5.138;2022-10-16T00:11:02;100996.91;;;17.59;69.53
56082;BME280;41957;52.060;5.138;2022-10-16T00:13:28;101001.31;;;17.59;69.56
56082;BME280;41957;52.060;5.138;2022-10-16T00:15:58;101002.25;;;17.58;69.34
56082;BME280;41957;52.060;5.138;2022-10-16T00:18:25;101008.38;;;17.60;69.84
56082;BME280;41957;52.060;5.138;2022-10-16T00:20:51;101007.53;;;17.59;69.18
56082;BME280;41957;52.060;5.138;2022-10-16T00:23:16;100993.56;;;17.54;69.24
56082;BME280;41957;52.060;5.138;2022-10-16T00:25:42;100996.94;;;17.58;69.44
56082;BME280;41957;52.060;5.138;2022-10-16T00:28:07;101004.13;;;17.56;69.24
56082;BME280;41957;52.060;5.138;2022-10-16T00:30:33;101002.22;;;17.59;69.42
56082;BME280;41957;52.060;5.138;2022-10-16T00:32:58;100997.03;;;17.56;69.67
56082;BME280;41957;52.060;5.138;2022-10-16T00:35:23;100998.78;;;17.56;69.22
56082;BME280;41957;52.060;5.138;2022-10-16T00:37:49;100997.88;;;17.57;69.19
56082;BME280;41957;52.060;5.138;2022-10-16T00:40:14;101002.25;;;17.58;68.85
56082;BME280;41957;52.060;5.138;2022-10-16T00:42:40;101010.25;;;17.58;69.33
56082;BME280;41957;52.060;5.138;2022-10-16T00:45:05;101005.00;;;17.56;69.31
56082;BME280;41957;52.060;5.138;2022-10-16T00:47:37;101002.34;;;17.56;69.33
56082;BME280;41957;52.060;5.138;2022-10-16T00:52:32;101009.44;;;17.56;69.18
56082;BME280;41957;52.060;5.138;2022-10-16T00:54:58;101012.16;;;17.54;69.08
56082;BME280;41957;52.060;5.138;2022-10-16T00:57:24;101021.00;;;17.55;69.17
56082;BME280;41957;52.060;5.138;2022-10-16T00:59:50;101015.78;;;17.53;69.27
56082;BME280;41957;52.060;5.138;2022-10-16T01:02:16;101012.16;;;17.54;69.40
56082;BME280;41957;52.060;5.138;2022-10-16T01:04:48;101016.69;;;17.52;69.07
56082;BME280;41957;52.060;5.138;2022-10-16T01:07:39;101014.03;;;17.52;69.04
56082;BME280;41957;52.060;5.138;2022-10-16T01:15:26;101020.16;;;17.54;69.37
56082;BME280;41957;52.060;5.138;2022-10-16T01:18:11;101013.13;;;17.53;68.95
56082;BME280;41957;52.060;5.138;2022-10-16T01:20:54;101019.34;;;17.52;69.20
56082;BME280;41957;52.060;5.138;2022-10-16T01:28:27;101023.88;;;17.50;69.00
56082;BME280;41957;52.060;5.138;2022-10-16T01:30:56;101022.97;;;17.50;69.19
56082;BME280;41957;52.060;5.138;2022-10-16T01:33:28;101022.13;;;17.49;68.76
56082;BME280;41957;52.060;5.138;2022-10-16T01:35:59;101020.41;;;17.48;69.11
56082;BME280;41957;52.060;5.138;2022-10-16T01:38:34;101001.81;;;17.48;69.26
56082;BME280;41957;52.060;5.138;2022-10-16T01:41:16;100963.78;;;17.46;68.86
56082;BME280;41957;52.060;5.138;2022-10-16T01:43:48;100982.47;;;17.45;69.06
56082;BME280;41957;52.060;5.138;2022-10-16T01:46:17;100979.72;;;17.46;69.18
56082;BME280;41957;52.060;5.138;2022-10-16T01:48:43;100980.81;;;17.42;69.01
56082;BME280;41957;52.060;5.138;2022-10-16T01:51:12;100984.16;;;17.47;69.38
56082;BME280;41957;52.060;5.138;2022-10-16T01:53:40;100997.47;;;17.46;69.13
56082;BME280;41957;52.060;5.138;2022-10-16T01:56:09;100994.81;;;17.46;69.17
56082;BME280;41957;52.060;5.138;2022-10-16T01:58:39;100995.69;;;17.46;68.88
56082;BME280;41957;52.060;5.138;2022-10-16T02:01:07;100995.75;;;17.45;69.08
56082;BME280;41957;52.060;5.138;2022-10-16T02:03:37;100988.78;;;17.42;69.14
56082;BME280;41957;52.060;5.138;2022-10-16T02:06:05;101001.13;;;17.43;69.44
56082;BME280;41957;52.060;5.138;2022-10-16T02:08:30;101013.50;;;17.44;68.99
56082;BME280;41957;52.060;5.138;2022-10-16T02:10:57;101011.84;;;17.41;68.56
56082;BME280;41957;52.060;5.138;2022-10-16T02:13:44;101008.31;;;17.41;69.03
56082;BME280;41957;52.060;5.138;2022-10-16T02:16:11;101010.84;;;17.44;69.12
56082;BME280;41957;52.060;5.138;2022-10-16T02:18:38;101008.31;;;17.41;69.27
56082;BME280;41957;52.060;5.138;2022-10-16T02:21:23;101010.03;;;17.42;69.08
56082;BME280;41957;52.060;5.138;2022-10-16T02:26:46;101015.50;;;17.39;69.39
56082;BME280;41957;52.060;5.138;2022-10-16T02:29:16;101015.50;;;17.39;68.96
56082;BME280;41957;52.060;5.138;2022-10-16T02:31:46;101018.16;;;17.39;69.37
56082;BME280;41957;52.060;5.138;2022-10-16T02:34:15;101012.88;;;17.37;69.34
56082;BME280;41957;52.060;5.138;2022-10-16T02:36:42;101022.78;;;17.34;69.29
56082;BME280;41957;52.060;5.138;2022-10-16T02:39:09;101015.75;;;17.33;69.13
56082;BME280;41957;52.060;5.138;2022-10-16T02:41:35;101017.47;;;17.34;69.50
56082;BME280;41957;52.060;5.138;2022-10-16T02:44:00;101025.44;;;17.34;69.18
56082;BME280;41957;52.060;5.138;2022-10-16T02:46:26;101023.78;;;17.31;69.66
56082;BME280;41957;52.060;5.138;2022-10-16T02:48:51;101027.38;;;17.30;69.62
56082;BME280;41957;52.060;5.138;2022-10-16T02:51:16;101028.22;;;17.31;69.48
56082;BME280;41957;52.060;5.138;2022-10-16T02:53:41;101027.38;;;17.30;69.67
56082;BME280;41957;52.060;5.138;2022-10-16T02:56:07;101028.31;;;17.29;69.57
56082;BME280;41957;52.060;5.138;2022-10-16T02:58:32;101030.97;;;17.29;69.54
56082;BME280;41957;52.060;5.138;2022-10-16T03:00:58;101038.00;;;17.30;69.25
56082;BME280;41957;52.060;5.138;2022-10-16T03:03:23;101022.06;;;17.30;69.14
56082;BME280;41957;52.060;5.138;2022-10-16T03:05:48;101027.44;;;17.29;69.26
56082;BME280;41957;52.060;5.138;2022-10-16T03:08:14;101015.19;;;17.25;69.61
56082;BME280;41957;52.060;5.138;2022-10-16T03:10:39;101009.84;;;17.26;69.36
56082;BME280;41957;52.060;5.138;2022-10-16T03:13:05;101015.06;;;17.28;69.37
56082;BME280;41957;52.060;5.138;2022-10-16T03:15:30;101021.38;;;17.25;69.61
56082;BME280;41957;52.060;5.138;2022-10-16T03:17:58;101016.94;;;17.26;69.57
56082;BME280;41957;52.060;5.138;2022-10-16T03:20:24;101017.94;;;17.23;69.48
56082;BME280;41957;52.060;5.138;2022-10-16T03:22:50;101017.13;;;17.21;69.39
56082;BME280;41957;52.060;5.138;2022-10-16T03:25:16;101020.66;;;17.22;69.78
56082;BME280;41957;52.060;5.138;2022-10-16T03:27:41;101019.75;;;17.23;69.54
56082;BME280;41957;52.060;5.138;2022-10-16T03:30:07;101031.28;;;17.22;69.63
56082;BME280;41957;52.060;5.138;2022-10-16T03:32:33;101037.56;;;17.19;69.94
56082;BME280;41957;52.060;5.138;2022-10-16T03:34:58;101040.22;;;17.19;69.89
56082;BME280;41957;52.060;5.138;2022-10-16T03:37:24;101044.75;;;17.17;69.61
56082;BME280;41957;52.060;5.138;2022-10-16T03:39:49;101041.28;;;17.15;69.50
56082;BME280;41957;52.060;5.138;2022-10-16T03:42:14;101044.69;;;17.18;69.54
56082;BME280;41957;52.060;5.138;2022-10-16T03:44:40;101045.66;;;17.16;69.40
56082;BME280;41957;52.060;5.138;2022-10-16T03:47:05;101045.81;;;17.13;69.66
56082;BME280;41957;52.060;5.138;2022-10-16T03:49:31;101053.63;;;17.16;69.40
56082;BME280;41957;52.060;5.138;2022-10-16T03:51:56;101050.13;;;17.15;69.56
56082;BME280;41957;52.060;5.138;2022-10-16T03:54:21;101051.13;;;17.13;69.87
56082;BME280;41957;52.060;5.138;2022-10-16T03:56:47;101046.75;;;17.12;69.68
56082;BME280;41957;52.060;5.138;2022-10-16T03:59:12;101052.91;;;17.12;69.80
56082;BME280;41957;52.060;5.138;2022-10-16T04:01:38;101061.69;;;17.14;70.02
56082;BME280;41957;52.060;5.138;2022-10-16T04:04:03;101069.72;;;17.13;69.80
56082;BME280;41957;52.060;5.138;2022-10-16T04:06:29;101076.81;;;17.12;70.01
56082;BME280;41957;52.060;5.138;2022-10-16T04:08:54;101078.69;;;17.10;69.66
56082;BME280;41957;52.060;5.138;2022-10-16T04:11:19;101070.72;;;17.10;69.89
56082;BME280;41957;52.060;5.138;2022-10-16T04:13:45;101084.91;;;17.09;69.89
56082;BME280;41957;52.060;5.138;2022-10-16T04:16:10;101081.41;;;17.09;70.07
56082;BME280;41957;52.060;5.138;2022-10-16T04:18:35;101088.56;;;17.07;69.77
56082;BME280;41957;52.060;5.138;2022-10-16T04:21:07;101082.38;;;17.06;70.24
56082;BME280;41957;52.060;5.138;2022-10-16T04:23:32;101092.13;;;17.06;69.87
56082;BME280;41957;52.060;5.138;2022-10-16T04:25:58;101093.00;;;17.06;70.27
56082;BME280;41957;52.060;5.138;2022-10-16T04:28:24;101093.00;;;17.06;70.12
56082;BME280;41957;52.060;5.138;2022-10-16T04:30:49;101093.13;;;17.03;70.02
56082;BME280;41957;52.060;5.138;2022-10-16T04:33:15;101098.44;;;17.03;70.11
56082;BME280;41957;52.060;5.138;2022-10-16T04:35:40;101100.22;;;17.03;70.23
56082;BME280;41957;52.060;5.138;2022-10-16T04:38:05;101103.81;;;17.02;70.09
56082;BME280;41957;52.060;5.138;2022-10-16T04:40:30;101104.59;;;17.04;69.81
56082;BME280;41957;52.060;5.138;2022-10-16T04:43:01;101117.09;;;17.02;70.26
56082;BME280;41957;52.060;5.138;2022-10-16T04:45:27;101116.25;;;17.01;70.22
56082;BME280;41957;52.060;5.138;2022-10-16T04:47:52;101122.53;;;16.99;69.95
56082;BME280;41957;52.060;5.138;2022-10-16T04:50:17;101115.44;;;16.99;70.23
56082;BME280;41957;52.060;5.138;2022-10-16T04:52:43;101126.91;;;17.00;70.05
56082;BME280;41957;52.060;5.138;2022-10-16T04:55:08;101123.41;;;16.99;70.16
56082;BME280;41957;52.060;5.138;2022-10-16T04:57:33;101128.72;;;16.99;69.98
56082;BME280;41957;52.060;5.138;2022-10-16T04:59:59;101134.03;;;16.99;70.17
56082;BME280;41957;52.060;5.138;2022-10-16T05:02:24;101133.31;;;16.94;70.17
56082;BME280;41957;52.060;5.138;2022-10-16T05:04:50;101144.75;;;16.96;69.89
56082;BME280;41957;52.060;5.138;2022-10-16T05:07:16;101155.44;;;16.94;70.34
56082;BME280;41957;52.060;5.138;2022-10-16T05:09:41;101156.38;;;16.93;70.21
56082;BME280;41957;52.060;5.138;2022-10-16T05:12:06;101162.66;;;16.91;70.32
56082;BME280;41957;52.060;5.138;2022-10-16T05:14:32;101160.81;;;16.93;70.50
56082;BME280;41957;52.060;5.138;2022-10-16T05:16:57;101162.63;;;16.92;70.20
56082;BME280;41957;52.060;5.138;2022-10-16T05:19:22;101162.66;;;16.91;70.13
56082;BME280;41957;52.060;5.138;2022-10-16T05:21:48;101168.91;;;16.90;70.29
56082;BME280;41957;52.060;5.138;2022-10-16T05:24:13;101170.75;;;16.88;70.56
56082;BME280;41957;52.060;5.138;2022-10-16T05:26:39;101176.06;;;16.88;70.54
56082;BME280;41957;52.060;5.138;2022-10-16T05:29:04;101185.75;;;16.89;70.59
56082;BME280;41957;52.060;5.138;2022-10-16T05:31:29;101184.03;;;16.88;70.62
56082;BME280;41957;52.060;5.138;2022-10-16T05:34:01;101177.00;;;16.87;70.68
56082;BME280;41957;52.060;5.138;2022-10-16T05:36:27;101181.31;;;16.89;70.49
56082;BME280;41957;52.060;5.138;2022-10-16T05:38:53;101190.25;;;16.87;70.40
56082;BME280;41957;52.060;5.138;2022-10-16T05:41:18;101197.38;;;16.86;70.30
56082;BME280;41957;52.060;5.138;2022-10-16T05:43:47;101208.84;;;16.87;70.25
56082;BME280;41957;52.060;5.138;2022-10-16T05:46:12;101207.09;;;16.86;70.46
56082;BME280;41957;52.060;5.138;2022-10-16T05:48:37;101209.75;;;16.86;70.17
56082;BME280;41957;52.060;5.138;2022-10-16T05:51:08;101213.34;;;16.85;70.41
56082;BME280;41957;52.060;5.138;2022-10-16T05:53:36;101210.56;;;16.88;69.68
56082;BME280;41957;52.060;5.138;2022-10-16T05:56:02;101209.47;;;16.93;69.75
56082;BME280;41957;52.060;5.138;2022-10-16T05:58:30;101207.81;;;16.91;70.14
56082;BME280;41957;52.060;5.138;2022-10-16T06:01:01;101228.22;;;16.89;69.90
56082;BME280;41957;52.060;5.138;2022-10-16T06:03:27;101223.81;;;16.89;70.20
56082;BME280;41957;52.060;5.138;2022-10-16T06:05:53;101225.75;;;16.84;70.34
56082;BME280;41957;52.060;5.138;2022-10-16T06:08:20;101231.94;;;16.85;70.30
56082;BME280;41957;52.060;5.138;2022-10-16T06:10:47;101234.59;;;16.85;70.21
56082;BME280;41957;52.060;5.138;2022-10-16T06:13:13;101252.31;;;16.84;70.10
56082;BME280;41957;52.060;5.138;2022-10-16T06:15:39;101246.13;;;16.84;70.32
56082;BME280;41957;52.060;5.138;2022-10-16T06:18:07;101247.88;;;16.85;69.96
56082;BME280;41957;52.060;5.138;2022-10-16T06:20:33;101248.69;;;16.87;69.85
56082;BME280;41957;52.060;5.138;2022-10-16T06:22:59;101243.47;;;16.84;69.85
56082;BME280;41957;52.060;5.138;2022-10-16T06:25:24;101244.38;;;16.83;70.04
56082;BME280;41957;52.060;5.138;2022-10-16T06:27:49;101254.97;;;16.84;70.21
56082;BME280;41957;52.060;5.138;2022-10-16T06:30:14;101261.13;;;16.85;70.11
56082;BME280;41957;52.060;5.138;2022-10-16T06:32:40;101262.84;;;16.86;69.82
56082;BME280;41957;52.060;5.138;2022-10-16T06:35:05;101266.41;;;16.86;69.98
56082;BME280;41957;52.060;5.138;2022-10-16T06:37:31;101265.59;;;16.84;70.30
56082;BME280;41957;52.060;5.138;2022-10-16T06:39:56;101275.38;;;16.82;70.45
56082;BME280;41957;52.060;5.138;2022-10-16T06:42:21;101262.94;;;16.84;70.21
56082;BME280;41957;52.060;5.138;2022-10-16T06:44:47;101266.53;;;16.83;70.03
56082;BME280;41957;52.060;5.138;2022-10-16T06:47:12;101251.56;;;16.81;69.96
56082;BME280;41957;52.060;5.138;2022-10-16T06:49:37;101255.94;;;16.82;70.53
56082;BME280;41957;52.060;5.138;2022-10-16T06:52:03;101266.41;;;16.86;70.43
56082;BME280;41957;52.060;5.138;2022-10-16T06:54:28;101268.84;;;16.92;70.19
56082;BME280;41957;52.060;5.138;2022-10-16T06:56:54;101273.09;;;16.96;70.44
56082;BME280;41957;52.060;5.138;2022-10-16T06:59:20;101278.31;;;17.00;70.21
56082;BME280;41957;52.060;5.138;2022-10-16T07:01:46;101283.63;;;17.00;70.22
56082;BME280;41957;52.060;5.138;2022-10-16T07:04:11;101282.63;;;17.02;70.47
56082;BME280;41957;52.060;5.138;2022-10-16T07:06:36;101294.25;;;17.00;70.37
56082;BME280;41957;52.060;5.138;2022-10-16T07:09:05;101288.94;;;17.00;69.85
56082;BME280;41957;52.060;5.138;2022-10-16T07:11:30;101299.59;;;16.98;70.26
56082;BME280;41957;52.060;5.138;2022-10-16T07:13:56;101297.81;;;16.99;70.32
56082;BME280;41957;52.060;5.138;2022-10-16T07:16:24;101302.25;;;16.98;69.96
56082;BME280;41957;52.060;5.138;2022-10-16T07:18:50;101311.00;;;17.02;70.49
56082;BME280;41957;52.060;5.138;2022-10-16T07:21:20;101310.91;;;17.03;70.29
56082;BME280;41957;52.060;5.138;2022-10-16T07:23:57;101323.41;;;17.01;70.18
56082;BME280;41957;52.060;5.138;2022-10-16T07:26:23;101322.41;;;17.04;69.88
56082;BME280;41957;52.060;5.138;2022-10-16T07:28:49;101328.53;;;17.06;70.45
56082;BME280;41957;52.060;5.138;2022-10-16T07:31:16;101350.63;;;17.08;70.20
56082;BME280;41957;52.060;5.138;2022-10-16T07:33:43;101355.06;;;17.07;70.08
56082;BME280;41957;52.060;5.138;2022-10-16T07:36:10;101361.38;;;17.03;70.09
56082;BME280;41957;52.060;5.138;2022-10-16T07:38:35;101362.31;;;17.02;70.56
56082;BME280;41957;52.060;5.138;2022-10-16T07:41:08;101372.94;;;17.02;70.24
56082;BME280;41957;52.060;5.138;2022-10-16T07:43:34;101376.31;;;17.07;70.07
56082;BME280;41957;52.060;5.138;2022-10-16T07:46:00;101385.72;;;17.16;70.18
56082;BME280;41957;52.060;5.138;2022-10-16T07:48:31;101395.38;;;17.18;70.14
56082;BME280;41957;52.060;5.138;2022-10-16T07:50:58;101405.88;;;17.22;70.50
56082;BME280;41957;52.060;5.138;2022-10-16T07:53:24;101404.81;;;17.27;70.36
56082;BME280;41957;52.060;5.138;2022-10-16T07:55:49;101401.66;;;17.41;69.45
56082;BME280;41957;52.060;5.138;2022-10-16T07:58:15;101402.41;;;17.45;69.60
56082;BME280;41957;52.060;5.138;2022-10-16T08:00:40;101402.09;;;17.52;69.81
56082;BME280;41957;52.060;5.138;2022-10-16T08:03:05;101406.56;;;17.52;69.20
56082;BME280;41957;52.060;5.138;2022-10-16T08:05:32;101403.03;;;17.51;68.63
56082;BME280;41957;52.060;5.138;2022-10-16T08:07:58;101406.53;;;17.53;68.90
56082;BME280;41957;52.060;5.138;2022-10-16T08:10:26;101419.63;;;17.58;68.65
56082;BME280;41957;52.060;5.138;2022-10-16T08:12:52;101422.34;;;17.56;68.98
56082;BME280;41957;52.060;5.138;2022-10-16T08:15:18;101419.75;;;17.55;68.90
56082;BME280;41957;52.060;5.138;2022-10-16T08:17:44;101425.81;;;17.58;68.89
56082;BME280;41957;52.060;5.138;2022-10-16T08:20:10;101425.69;;;17.61;68.96
56082;BME280;41957;52.060;5.138;2022-10-16T08:22:35;101431.66;;;17.68;69.01
56082;BME280;41957;52.060;5.138;2022-10-16T08:25:00;101437.00;;;17.68;68.76
56082;BME280;41957;52.060;5.138;2022-10-16T08:27:31;101437.84;;;17.69;68.95
56082;BME280;41957;52.060;5.138;2022-10-16T08:29:57;101435.97;;;17.71;68.75
56082;BME280;41957;52.060;5.138;2022-10-16T08:32:22;101436.88;;;17.71;68.57
56082;BME280;41957;52.060;5.138;2022-10-16T08:34:47;101439.47;;;17.73;68.30
56082;BME280;41957;52.060;5.138;2022-10-16T08:37:13;101450.97;;;17.73;68.86
56082;BME280;41957;52.060;5.138;2022-10-16T08:39:38;101449.16;;;17.74;68.72
56082;BME280;41957;52.060;5.138;2022-10-16T08:47:22;101457.09;;;17.75;68.62
56082;BME280;41957;52.060;5.138;2022-10-16T08:49:59;101465.94;;;17.76;68.62
56082;BME280;41957;52.060;5.138;2022-10-16T08:52:33;101469.53;;;17.75;68.80
56082;BME280;41957;52.060;5.138;2022-10-16T08:55:00;101472.97;;;17.77;68.28
56082;BME280;41957;52.060;5.138;2022-10-16T08:57:26;101473.84;;;17.79;68.50
56082;BME280;41957;52.060;5.138;2022-10-16T08:59:52;101477.44;;;17.78;68.38
56082;BME280;41957;52.060;5.138;2022-10-16T09:05:11;101484.66;;;17.73;68.21
56082;BME280;41957;52.060;5.138;2022-10-16T09:08:00;101485.50;;;17.75;68.31
56082;BME280;41957;52.060;5.138;2022-10-16T09:10:54;101492.44;;;17.79;68.48
56082;BME280;41957;52.060;5.138;2022-10-16T09:13:29;101494.19;;;17.80;68.50
56082;BME280;41957;52.060;5.138;2022-10-16T09:18:43;101502.31;;;17.75;68.45
56082;BME280;41957;52.060;5.138;2022-10-16T09:21:19;101504.91;;;17.77;68.66
56082;BME280;41957;52.060;5.138;2022-10-16T09:23:47;101501.28;;;17.79;68.21
56082;BME280;41957;52.060;5.138;2022-10-16T09:26:13;101495.94;;;17.81;68.46
56082;BME280;41957;52.060;5.138;2022-10-16T09:28:40;101506.56;;;17.81;68.28
56082;BME280;41957;52.060;5.138;2022-10-16T09:31:15;101519.91;;;17.79;69.01
56082;BME280;41957;52.060;5.138;2022-10-16T09:33:43;101518.13;;;17.80;68.87
56082;BME280;41957;52.060;5.138;2022-10-16T09:36:10;101514.59;;;17.54;66.75
56082;BME280;41957;52.060;5.138;2022-10-16T09:38:37;101509.47;;;17.48;66.83
56082;BME280;41957;52.060;5.138;2022-10-16T09:41:18;101513.97;;;17.46;66.54
56082;BME280;41957;52.060;5.138;2022-10-16T09:44:01;101520.31;;;17.42;66.34
56082;BME280;41957;52.060;5.138;2022-10-16T09:46:35;101517.50;;;17.47;67.31
56082;BME280;41957;52.060;5.138;2022-10-16T09:49:17;101522.66;;;17.51;67.61
56082;BME280;41957;52.060;5.138;2022-10-16T09:51:44;101525.03;;;17.59;67.55
56082;BME280;41957;52.060;5.138;2022-10-16T09:54:20;101526.56;;;17.66;67.22
56082;BME280;41957;52.060;5.138;2022-10-16T09:56:47;101524.78;;;17.66;67.27
56082;BME280;41957;52.060;5.138;2022-10-16T09:59:21;101534.44;;;17.69;67.45
56082;BME280;41957;52.060;5.138;2022-10-16T10:01:55;101536.16;;;17.70;67.62
56082;BME280;41957;52.060;5.138;2022-10-16T10:04:22;101529.13;;;17.69;67.47
56082;BME280;41957;52.060;5.138;2022-10-16T10:06:53;101542.41;;;17.69;67.36
56082;BME280;41957;52.060;5.138;2022-10-16T10:12:17;101537.13;;;17.67;67.55
56082;BME280;41957;52.060;5.138;2022-10-16T10:14:47;101547.78;;;17.67;67.75
56082;BME280;41957;52.060;5.138;2022-10-16T10:17:17;101541.56;;;17.69;67.51
56082;BME280;41957;52.060;5.138;2022-10-16T10:19:52;101549.53;;;17.69;68.11
56082;BME280;41957;52.060;5.138;2022-10-16T10:22:40;101552.22;;;17.67;67.68
56082;BME280;41957;52.060;5.138;2022-10-16T10:30:27;101569.03;;;17.67;68.04
56082;BME280;41957;52.060;5.138;2022-10-16T10:33:05;101564.63;;;17.68;68.12
56082;BME280;41957;52.060;5.138;2022-10-16T10:35:45;101566.38;;;17.67;67.99
56082;BME280;41957;52.060;5.138;2022-10-16T10:41:33;101578.81;;;17.67;68.30
56082;BME280;41957;52.060;5.138;2022-10-16T10:47:05;101572.69;;;17.65;68.40
56082;BME280;41957;52.060;5.138;2022-10-16T10:55:03;101581.47;;;17.67;68.67
56082;BME280;41957;52.060;5.138;2022-10-16T10:57:46;101583.28;;;17.66;68.52
56082;BME280;41957;52.060;5.138;2022-10-16T11:00:28;101580.72;;;17.63;68.95
56082;BME280;41957;52.060;5.138;2022-10-16T11:03:13;101588.72;;;17.62;68.93
56082;BME280;41957;52.060;5.138;2022-10-16T11:05:45;101585.09;;;17.64;68.91
56082;BME280;41957;52.060;5.138;2022-10-16T11:08:28;101583.28;;;17.66;68.61
56082;BME280;41957;52.060;5.138;2022-10-16T11:11:03;101589.53;;;17.65;68.60
56082;BME280;41957;52.060;5.138;2022-10-16T11:16:30;101604.59;;;17.65;69.15
56082;BME280;41957;52.060;5.138;2022-10-16T11:19:03;101595.72;;;17.66;69.09
56082;BME280;41957;52.060;5.138;2022-10-16T11:21:35;101612.53;;;17.66;69.20
56082;BME280;41957;52.060;5.138;2022-10-16T11:24:10;101607.31;;;17.63;69.15
56082;BME280;41957;52.060;5.138;2022-10-16T11:26:39;101616.97;;;17.66;68.96
56082;BME280;41957;52.060;5.138;2022-10-16T11:29:13;101614.31;;;17.66;69.42
56082;BME280;41957;52.060;5.138;2022-10-16T11:31:48;101606.28;;;17.67;68.76
56082;BME280;41957;52.060;5.138;2022-10-16T11:37:12;101620.53;;;17.65;69.47
56082;BME280;41957;52.060;5.138;2022-10-16T11:39:39;101617.00;;;17.64;69.31
56082;BME280;41957;52.060;5.138;2022-10-16T11:44:47;101628.50;;;17.65;69.29
56082;BME280;41957;52.060;5.138;2022-10-16T11:47:33;101629.44;;;17.64;69.34
56082;BME280;41957;52.060;5.138;2022-10-16T11:50:29;101622.34;;;17.64;69.52
56082;BME280;41957;52.060;5.138;2022-10-16T11:55:47;101622.22;;;17.67;69.83
56082;BME280;41957;52.060;5.138;2022-10-16T11:58:17;101640.91;;;17.66;69.92
56082;BME280;41957;52.060;5.138;2022-10-16T12:00:51;101626.84;;;17.62;69.32
56082;BME280;41957;52.060;5.138;2022-10-16T12:03:35;101632.09;;;17.64;68.88
56082;BME280;41957;52.060;5.138;2022-10-16T12:09:00;101645.38;;;17.65;69.06
56082;BME280;41957;52.060;5.138;2022-10-16T12:13:51;101654.13;;;17.67;69.42
56082;BME280;41957;52.060;5.138;2022-10-16T12:18:46;101658.59;;;17.67;69.33
56082;BME280;41957;52.060;5.138;2022-10-16T12:21:14;101645.28;;;17.67;69.33
56082;BME280;41957;52.060;5.138;2022-10-16T12:23:52;101645.38;;;17.65;69.26
56082;BME280;41957;52.060;5.138;2022-10-16T12:26:30;101648.81;;;17.67;69.35
56082;BME280;41957;52.060;5.138;2022-10-16T12:29:12;101666.53;;;17.69;69.10
56082;BME280;41957;52.060;5.138;2022-10-16T12:31:43;101662.19;;;17.66;69.54
56082;BME280;41957;52.060;5.138;2022-10-16T12:34:29;101657.69;;;17.68;69.12
56082;BME280;41957;52.060;5.138;2022-10-16T12:37:09;101662.19;;;17.66;68.83
56082;BME280;41957;52.060;5.138;2022-10-16T12:39:35;101655.09;;;17.65;69.49
56082;BME280;41957;52.060;5.138;2022-10-16T12:42:20;101663.97;;;17.65;68.74
56082;BME280;41957;52.060;5.138;2022-10-16T12:44:46;101653.34;;;17.65;69.00
56082;BME280;41957;52.060;5.138;2022-10-16T12:47:48;101658.59;;;17.67;68.67
56082;BME280;41957;52.060;5.138;2022-10-16T12:50:35;101659.53;;;17.66;68.65
56082;BME280;41957;52.060;5.138;2022-10-16T12:53:03;101661.31;;;17.65;68.80
56082;BME280;41957;52.060;5.138;2022-10-16T12:55:40;101658.66;;;17.65;68.96
56082;BME280;41957;52.060;5.138;2022-10-16T13:01:17;101664.88;;;17.64;69.02
56082;BME280;41957;52.060;5.138;2022-10-16T13:06:45;101659.63;;;17.63;69.01
56082;BME280;41957;52.060;5.138;2022-10-16T13:14:56;101669.97;;;17.71;68.79
56082;BME280;41957;52.060;5.138;2022-10-16T13:17:36;101670.06;;;17.69;68.89
56082;BME280;41957;52.060;5.138;2022-10-16T13:23:04;101678.03;;;17.69;68.95
56082;BME280;41957;52.060;5.138;2022-10-16T13:25:41;101676.13;;;17.73;69.05
56082;BME280;41957;52.060;5.138;2022-10-16T13:28:13;101673.47;;;17.73;68.54
56082;BME280;41957;52.060;5.138;2022-10-16T13:30:41;101675.28;;;17.72;69.08
56082;BME280;41957;52.060;5.138;2022-10-16T13:33:15;101688.56;;;17.72;69.15
56082;BME280;41957;52.060;5.138;2022-10-16T13:35:50;101691.16;;;17.74;68.63
56082;BME280;41957;52.060;5.138;2022-10-16T13:38:36;101702.72;;;17.73;68.77
56082;BME280;41957;52.060;5.138;2022-10-16T13:41:05;101698.22;;;17.75;68.76
56082;BME280;41957;52.060;5.138;2022-10-16T13:43:43;101692.06;;;17.74;68.98
56082;BME280;41957;52.060;5.138;2022-10-16T13:46:19;101685.94;;;17.71;68.93
56082;BME280;41957;52.060;5.138;2022-10-16T13:48:55;101688.56;;;17.72;69.07
56082;BME280;41957;52.060;5.138;2022-10-16T13:51:21;101689.50;;;17.71;69.07
56082;BME280;41957;52.060;5.138;2022-10-16T13:53:46;101699.31;;;17.69;69.00
56082;BME280;41957;52.060;5.138;2022-10-16T13:56:20;101693.13;;;17.69;69.59
56082;BME280;41957;52.060;5.138;2022-10-16T13:58:57;101702.00;;;17.67;69.33
56082;BME280;41957;52.060;5.138;2022-10-16T14:01:25;101699.34;;;17.67;69.21
56082;BME280;41957;52.060;5.138;2022-10-16T14:03:52;101708.22;;;17.68;69.18
56082;BME280;41957;52.060;5.138;2022-10-16T14:06:20;101713.56;;;17.66;69.67
56082;BME280;41957;52.060;5.138;2022-10-16T14:09:01;101708.25;;;17.66;69.27
56082;BME280;41957;52.060;5.138;2022-10-16T14:11:29;101699.41;;;17.66;69.27
56082;BME280;41957;52.060;5.138;2022-10-16T14:13:55;101701.13;;;17.67;69.25
56082;BME280;41957;52.060;5.138;2022-10-16T14:16:23;101695.81;;;17.67;69.47
56082;BME280;41957;52.060;5.138;2022-10-16T14:18:56;101688.69;;;17.67;69.74
56082;BME280;41957;52.060;5.138;2022-10-16T14:21:23;101683.38;;;17.67;69.52